createdAt,value
2019-01-20T00:00:59.459Z,129.81
2019-01-20T00:01:59.632Z,105.69
2019-01-20T00:02:59.811Z,130.52
2019-01-20T00:04:00.029Z,105.69
2019-01-20T00:05:00.231Z,130.33
2019-01-20T00:06:00.282Z,129.74
2019-01-20T00:07:00.442Z,130.08
2019-01-20T00:08:00.621Z,105.69
2019-01-20T00:09:00.782Z,130.27
2019-01-20T00:10:00.931Z,130.53
2019-01-20T00:11:01.093Z,130.06
2019-01-20T00:12:01.306Z,129.54
2019-01-20T00:13:01.443Z,129.73
2019-01-20T00:14:01.607Z,129.60
2019-01-20T00:15:01.763Z,129.87
2019-01-20T00:16:01.938Z,105.69
2019-01-20T00:17:02.071Z,130.33
2019-01-20T00:18:02.265Z,129.59
2019-01-20T00:19:02.427Z,130.11
2019-01-20T00:20:02.646Z,130.18
2019-01-20T00:21:02.821Z,129.99
2019-01-20T00:22:02.885Z,129.88
2019-01-20T00:23:03.078Z,130.49
2019-01-20T00:24:03.243Z,130.40
2019-01-20T00:25:03.393Z,130.45
2019-01-20T00:26:03.563Z,130.53
2019-01-20T00:27:03.708Z,129.48
2019-01-20T00:28:03.879Z,129.93
2019-01-20T00:29:04.194Z,129.90
2019-01-20T00:30:04.206Z,105.69
2019-01-20T00:31:04.392Z,129.93
2019-01-20T00:32:04.526Z,130.29
2019-01-20T00:33:04.680Z,130.14
2019-01-20T00:34:04.861Z,130.04
2019-01-20T00:35:05.047Z,129.63
2019-01-20T00:36:05.213Z,129.44
2019-01-20T00:37:05.487Z,129.95
2019-01-20T00:38:05.500Z,130.38
2019-01-20T00:39:05.671Z,130.15
2019-01-20T00:40:05.864Z,129.48
2019-01-20T00:41:06.026Z,130.05
2019-01-20T00:42:06.169Z,130.41
2019-01-20T00:43:06.347Z,130.34
2019-01-20T00:44:06.478Z,130.44
2019-01-20T00:45:06.680Z,130.06
2019-01-20T00:46:06.821Z,129.85
2019-01-20T00:47:06.968Z,129.69
2019-01-20T00:48:07.147Z,130.06
2019-01-20T00:49:07.293Z,130.27
2019-01-20T00:50:07.451Z,129.60
2019-01-20T00:51:07.654Z,105.69
2019-01-20T00:52:07.820Z,105.69
2019-01-20T00:53:08.027Z,105.69
2019-01-20T00:54:08.147Z,105.69
2019-01-20T00:55:08.251Z,105.69
2019-01-20T00:56:08.413Z,105.69
2019-01-20T00:57:08.596Z,105.69
2019-01-20T00:58:08.759Z,105.69
2019-01-20T00:59:08.903Z,105.69
2019-01-20T01:00:09.073Z,105.69
2019-01-20T01:01:09.257Z,105.69
2019-01-20T01:02:09.492Z,105.69
2019-01-20T01:03:09.563Z,105.69
2019-01-20T01:04:09.715Z,105.69
2019-01-20T01:05:09.871Z,105.69
2019-01-20T01:06:10.043Z,105.69
2019-01-20T01:07:10.194Z,105.69
2019-01-20T01:08:10.355Z,105.69
2019-01-20T01:09:10.523Z,105.69
2019-01-20T01:10:10.840Z,105.69
2019-01-20T01:11:10.844Z,105.69
2019-01-20T01:12:10.993Z,105.69
2019-01-20T01:13:11.163Z,105.69
2019-01-20T01:14:11.350Z,105.69
2019-01-20T01:15:11.533Z,105.69
2019-01-20T01:16:11.934Z,105.69
2019-01-20T01:17:11.841Z,105.69
2019-01-20T01:18:12.078Z,105.69
2019-01-20T01:19:12.159Z,105.69
2019-01-20T01:20:12.315Z,105.69
2019-01-20T01:21:12.489Z,105.69
2019-01-20T01:22:12.646Z,105.69
2019-01-20T01:23:12.775Z,105.69
2019-01-20T01:24:12.976Z,105.69
2019-01-20T01:25:13.140Z,105.69
2019-01-20T01:26:13.349Z,105.69
2019-01-20T01:27:13.446Z,105.69
2019-01-20T01:28:13.610Z,105.69
2019-01-20T01:29:13.773Z,105.69
2019-01-20T01:30:13.927Z,105.69
2019-01-20T01:31:14.120Z,105.69
2019-01-20T01:32:14.274Z,105.69
2019-01-20T01:33:14.424Z,105.69
2019-01-20T01:34:14.636Z,105.69
2019-01-20T01:35:14.993Z,105.69
2019-01-20T01:36:14.926Z,105.69
2019-01-20T01:37:15.082Z,105.69
2019-01-20T01:38:15.227Z,105.69
2019-01-20T01:39:15.401Z,105.69
2019-01-20T01:40:15.543Z,105.69
2019-01-20T01:41:15.700Z,105.69
2019-01-20T01:42:15.901Z,105.69
2019-01-20T01:43:16.133Z,105.69
2019-01-20T01:44:16.206Z,105.69
2019-01-20T01:45:16.349Z,105.69
2019-01-20T01:46:16.524Z,130.25
2019-01-20T01:47:16.682Z,130.41
2019-01-20T01:48:16.843Z,130.48
2019-01-20T01:49:17.018Z,130.06
2019-01-20T01:50:17.202Z,129.78
2019-01-20T01:51:17.413Z,130.45
2019-01-20T01:52:17.479Z,130.69
2019-01-20T01:53:17.637Z,130.61
2019-01-20T01:54:17.817Z,129.88
2019-01-20T01:55:17.975Z,130.13
2019-01-20T01:56:18.121Z,130.51
2019-01-20T01:57:18.267Z,129.62
2019-01-20T01:58:18.442Z,129.88
2019-01-20T01:59:18.682Z,129.64
2019-01-20T02:00:18.758Z,130.49
2019-01-20T02:01:18.934Z,129.92
2019-01-20T02:02:19.058Z,130.13
2019-01-20T02:03:19.238Z,130.03
2019-01-20T02:04:19.419Z,130.79
2019-01-20T02:05:19.571Z,130.59
2019-01-20T02:06:19.751Z,129.99
2019-01-20T02:07:19.932Z,130.31
2019-01-20T02:08:19.941Z,129.53
2019-01-20T02:09:20.121Z,129.79
2019-01-20T02:10:20.283Z,130.72
2019-01-20T02:11:20.455Z,130.21
2019-01-20T02:12:20.640Z,129.90
2019-01-20T02:13:20.741Z,129.76
2019-01-20T02:14:20.932Z,129.89
2019-01-20T02:15:21.358Z,129.81
2019-01-20T02:16:21.377Z,129.88
2019-01-20T02:17:21.438Z,130.11
2019-01-20T02:18:21.600Z,130.12
2019-01-20T02:19:21.796Z,130.40
2019-01-20T02:20:21.939Z,130.51
2019-01-20T02:21:22.097Z,130.81
2019-01-20T02:22:22.323Z,105.69
2019-01-20T02:23:22.425Z,129.76
2019-01-20T02:24:22.701Z,130.63
2019-01-20T02:25:22.745Z,129.69
2019-01-20T02:26:22.903Z,130.13
2019-01-20T02:27:23.075Z,129.98
2019-01-20T02:28:23.221Z,129.60
2019-01-20T02:29:23.414Z,130.39
2019-01-20T02:30:23.572Z,129.62
2019-01-20T02:31:23.726Z,129.80
2019-01-20T02:32:23.990Z,130.39
2019-01-20T02:33:24.043Z,130.06
2019-01-20T02:34:24.246Z,130.34
2019-01-20T02:35:24.398Z,129.59
2019-01-20T02:36:24.563Z,130.15
2019-01-20T02:37:24.736Z,129.59
2019-01-20T02:38:24.881Z,130.34
2019-01-20T02:39:25.071Z,129.99
2019-01-20T02:40:25.244Z,129.99
2019-01-20T02:41:25.366Z,129.96
2019-01-20T02:42:25.533Z,129.79
2019-01-20T02:43:25.669Z,130.13
2019-01-20T02:44:25.856Z,130.69
2019-01-20T02:45:26.025Z,130.56
2019-01-20T02:46:26.162Z,130.25
2019-01-20T02:47:26.336Z,130.73
2019-01-20T02:48:26.531Z,129.73
2019-01-20T02:49:26.648Z,129.94
2019-01-20T02:50:26.805Z,130.31
2019-01-20T02:51:26.969Z,130.32
2019-01-20T02:52:27.147Z,129.74
2019-01-20T02:53:27.291Z,129.78
2019-01-20T02:54:27.467Z,130.19
2019-01-20T02:55:27.627Z,130.45
2019-01-20T02:56:28.029Z,130.80
2019-01-20T02:57:28.035Z,130.37
2019-01-20T02:58:28.106Z,130.22
2019-01-20T02:59:28.278Z,129.88
2019-01-20T03:00:28.450Z,129.96
2019-01-20T03:01:28.605Z,130.60
2019-01-20T03:02:28.749Z,130.11
2019-01-20T03:03:28.903Z,129.72
2019-01-20T03:04:29.100Z,129.68
2019-01-20T03:05:29.358Z,130.35
2019-01-20T03:06:29.392Z,129.85
2019-01-20T03:07:29.561Z,130.14
2019-01-20T03:08:29.715Z,130.44
2019-01-20T03:09:29.921Z,130.37
2019-01-20T03:10:30.050Z,130.62
2019-01-20T03:11:30.217Z,130.67
2019-01-20T03:12:30.391Z,130.23
2019-01-20T03:13:30.615Z,129.62
2019-01-20T03:14:30.704Z,130.02
2019-01-20T03:15:30.842Z,130.48
2019-01-20T03:16:31.005Z,129.41
2019-01-20T03:17:31.174Z,130.39
2019-01-20T03:18:31.323Z,130.15
2019-01-20T03:19:31.506Z,105.69
2019-01-20T03:20:31.647Z,129.59
2019-01-20T03:21:31.863Z,129.74
2019-01-20T03:22:31.964Z,130.06
2019-01-20T03:23:32.115Z,129.55
2019-01-20T03:24:32.258Z,130.28
2019-01-20T03:25:32.415Z,129.85
2019-01-20T03:26:32.610Z,129.96
2019-01-20T03:27:32.776Z,130.47
2019-01-20T03:28:32.921Z,129.81
2019-01-20T03:29:33.118Z,130.79
2019-01-20T03:30:33.281Z,129.70
2019-01-20T03:31:33.439Z,129.66
2019-01-20T03:32:33.594Z,130.25
2019-01-20T03:33:33.738Z,129.94
2019-01-20T03:34:33.896Z,130.31
2019-01-20T03:35:34.076Z,129.78
2019-01-20T03:36:34.237Z,130.21
2019-01-20T03:37:34.438Z,130.61
2019-01-20T03:38:34.664Z,130.58
2019-01-20T03:39:34.731Z,129.39
2019-01-20T03:40:34.881Z,130.13
2019-01-20T03:41:38.978Z,129.60
2019-01-20T03:42:35.238Z,130.48
2019-01-20T03:43:35.383Z,130.23
2019-01-20T03:44:35.554Z,129.74
2019-01-20T03:45:35.718Z,130.43
2019-01-20T03:46:35.987Z,129.48
2019-01-20T03:47:36.056Z,129.48
2019-01-20T03:48:36.204Z,130.22
2019-01-20T03:49:36.380Z,130.30
2019-01-20T03:50:36.552Z,129.86
2019-01-20T03:51:36.691Z,129.83
2019-01-20T03:52:36.870Z,130.01
2019-01-20T03:53:37.014Z,130.25
2019-01-20T03:54:37.227Z,130.09
2019-01-20T03:55:37.335Z,129.43
2019-01-20T03:56:37.489Z,130.31
2019-01-20T03:57:37.650Z,129.85
2019-01-20T03:58:37.795Z,129.87
2019-01-20T03:59:37.991Z,129.99
2019-01-20T04:00:38.147Z,129.94
2019-01-20T04:01:38.294Z,129.96
2019-01-20T04:02:38.521Z,129.88
2019-01-20T04:03:38.577Z,129.73
2019-01-20T04:04:38.772Z,130.49
2019-01-20T04:05:38.948Z,130.16
2019-01-20T04:06:39.093Z,130.23
2019-01-20T04:07:39.285Z,129.85
2019-01-20T04:08:39.421Z,130.11
2019-01-20T04:09:39.565Z,129.69
2019-01-20T04:10:39.774Z,130.25
2019-01-20T04:11:39.955Z,129.97
2019-01-20T04:12:40.089Z,130.00
2019-01-20T04:13:40.217Z,130.06
2019-01-20T04:14:40.387Z,129.39
2019-01-20T04:15:40.566Z,129.40
2019-01-20T04:16:40.721Z,130.59
2019-01-20T04:17:40.919Z,129.56
2019-01-20T04:18:41.053Z,129.19
2019-01-20T04:19:41.288Z,130.23
2019-01-20T04:20:41.382Z,129.47
2019-01-20T04:21:41.524Z,129.29
2019-01-20T04:22:41.715Z,129.79
2019-01-20T04:23:41.849Z,130.39
2019-01-20T04:24:42.001Z,130.40
2019-01-20T04:25:42.163Z,129.64
2019-01-20T04:26:42.397Z,105.69
2019-01-20T04:27:42.608Z,105.69
2019-01-20T04:28:42.640Z,105.69
2019-01-20T04:29:42.798Z,105.69
2019-01-20T04:30:42.952Z,105.69
2019-01-20T04:31:43.121Z,105.69
2019-01-20T04:32:43.343Z,105.69
2019-01-20T04:33:43.458Z,105.69
2019-01-20T04:34:43.623Z,105.69
2019-01-20T04:35:44.053Z,105.69
2019-01-20T04:36:43.905Z,105.69
2019-01-20T04:37:44.127Z,105.69
2019-01-20T04:38:44.264Z,105.69
2019-01-20T04:39:44.416Z,105.69
2019-01-20T04:40:44.605Z,105.69
2019-01-20T04:41:44.747Z,105.69
2019-01-20T04:42:44.900Z,105.69
2019-01-20T04:43:45.088Z,105.69
2019-01-20T04:44:45.225Z,105.69
2019-01-20T04:45:45.398Z,105.69
2019-01-20T04:46:45.551Z,105.69
2019-01-20T04:47:45.721Z,105.69
2019-01-20T04:48:45.868Z,105.69
2019-01-20T04:49:46.043Z,105.69
2019-01-20T04:50:46.239Z,105.69
2019-01-20T04:51:46.425Z,105.69
2019-01-20T04:52:46.651Z,105.69
2019-01-20T04:53:46.728Z,105.69
2019-01-20T04:54:46.882Z,105.69
2019-01-20T04:55:47.080Z,105.69
2019-01-20T04:56:47.226Z,105.69
2019-01-20T04:57:47.403Z,105.69
2019-01-20T04:58:47.568Z,105.69
2019-01-20T04:59:47.697Z,105.69
2019-01-20T05:00:47.992Z,105.69
2019-01-20T05:01:48.022Z,105.69
2019-01-20T05:02:48.202Z,105.69
2019-01-20T05:03:48.361Z,105.69
2019-01-20T05:04:48.492Z,105.69
2019-01-20T05:05:48.685Z,105.69
2019-01-20T05:06:48.863Z,105.69
2019-01-20T05:07:49.025Z,105.69
2019-01-20T05:08:49.235Z,105.69
2019-01-20T05:09:49.304Z,105.69
2019-01-20T05:10:49.510Z,105.69
2019-01-20T05:11:49.658Z,105.69
2019-01-20T05:12:49.838Z,105.69
2019-01-20T05:13:50.006Z,105.69
2019-01-20T05:14:50.143Z,105.69
2019-01-20T05:15:50.325Z,105.69
2019-01-20T05:16:50.502Z,105.69
2019-01-20T05:17:50.605Z,105.69
2019-01-20T05:18:50.793Z,105.69
2019-01-20T05:19:50.936Z,105.69
2019-01-20T05:20:51.123Z,105.69
2019-01-20T05:21:51.253Z,105.69
2019-01-20T05:22:51.399Z,105.69
2019-01-20T05:23:51.594Z,105.69
2019-01-20T05:24:51.798Z,105.69
2019-01-20T05:25:51.971Z,105.69
2019-01-20T05:26:52.095Z,105.69
2019-01-20T05:27:52.214Z,105.69
2019-01-20T05:28:52.398Z,105.69
2019-01-20T05:29:52.554Z,105.69
2019-01-20T05:30:52.727Z,105.69
2019-01-20T05:31:52.891Z,105.69
2019-01-20T05:32:53.043Z,105.69
2019-01-20T05:33:53.316Z,105.69
2019-01-20T05:34:53.354Z,105.69
2019-01-20T05:35:53.539Z,105.69
2019-01-20T05:36:53.698Z,105.69
2019-01-20T05:37:53.840Z,105.69
2019-01-20T05:38:54.002Z,105.69
2019-01-20T05:39:54.158Z,105.69
2019-01-20T05:40:54.335Z,105.69
2019-01-20T05:41:54.964Z,105.69
2019-01-20T05:42:54.622Z,105.69
2019-01-20T05:43:54.821Z,105.69
2019-01-20T05:44:54.976Z,105.69
2019-01-20T05:45:55.126Z,105.69
2019-01-20T05:46:55.304Z,105.69
2019-01-20T05:47:55.471Z,105.69
2019-01-20T05:48:55.626Z,105.69
2019-01-20T05:49:55.816Z,105.69
2019-01-20T05:50:55.906Z,105.69
2019-01-20T05:51:56.101Z,105.69
2019-01-20T05:52:56.269Z,105.69
2019-01-20T05:53:56.440Z,105.69
2019-01-20T05:54:56.574Z,105.69
2019-01-20T05:55:56.745Z,105.69
2019-01-20T05:56:56.950Z,105.69
2019-01-20T05:57:57.144Z,105.69
2019-01-20T05:58:57.257Z,105.69
2019-01-20T05:59:57.403Z,105.69
2019-01-20T06:00:57.546Z,105.69
2019-01-20T06:01:57.754Z,105.69
2019-01-20T06:02:57.893Z,105.69
2019-01-20T06:03:58.068Z,105.69
2019-01-20T06:04:58.213Z,105.69
2019-01-20T06:05:58.398Z,105.69
2019-01-20T06:06:58.614Z,105.69
2019-01-20T06:07:58.711Z,105.69
2019-01-20T06:08:58.938Z,105.69
2019-01-20T06:09:59.020Z,105.69
2019-01-20T06:10:59.180Z,105.69
2019-01-20T06:11:59.355Z,105.69
2019-01-20T06:12:59.521Z,105.69
2019-01-20T06:13:59.701Z,105.69
2019-01-20T06:15:00.295Z,105.69
2019-01-20T06:16:00.003Z,105.69
2019-01-20T06:17:00.166Z,105.69
2019-01-20T06:18:00.341Z,105.69
2019-01-20T06:19:00.514Z,105.69
2019-01-20T06:20:00.666Z,105.69
2019-01-20T06:21:00.830Z,105.69
2019-01-20T06:22:01.010Z,105.69
2019-01-20T06:23:01.308Z,105.69
2019-01-20T06:24:01.309Z,105.69
2019-01-20T06:25:01.500Z,105.69
2019-01-20T06:26:01.609Z,105.69
2019-01-20T06:27:01.815Z,105.69
2019-01-20T06:28:01.948Z,105.69
2019-01-20T06:31:45.768Z,105.69
2019-01-20T06:32:28.375Z,105.69
2019-01-20T06:33:28.612Z,105.69
2019-01-20T06:34:28.683Z,105.69
2019-01-20T06:35:28.863Z,105.69
2019-01-20T06:39:08.746Z,105.69
2019-01-20T06:39:53.990Z,105.69
2019-01-20T06:40:54.154Z,105.69
2019-01-20T06:41:54.343Z,105.69
2019-01-20T06:43:01.213Z,105.69
2019-01-20T06:43:55.650Z,105.69
2019-01-20T06:44:54.800Z,105.69
2019-01-20T06:45:54.952Z,105.69
2019-01-20T06:46:55.164Z,105.69
2019-01-20T06:47:55.327Z,105.69
2019-01-20T06:48:55.477Z,105.69
2019-01-20T06:49:55.627Z,105.69
2019-01-20T06:50:55.814Z,105.69
2019-01-20T06:51:55.923Z,105.69
2019-01-20T06:52:56.121Z,130.10
2019-01-20T06:53:56.276Z,129.88
2019-01-20T06:54:56.420Z,130.13
2019-01-20T06:55:56.575Z,129.97
2019-01-20T06:56:56.761Z,129.80
2019-01-20T06:57:56.889Z,129.81
2019-01-20T06:58:57.104Z,130.32
2019-01-20T06:59:57.319Z,129.47
2019-01-20T07:00:57.387Z,129.94
2019-01-20T07:01:57.559Z,129.85
2019-01-20T07:02:57.723Z,129.41
2019-01-20T07:03:57.895Z,129.13
2019-01-20T07:04:58.036Z,129.88
2019-01-20T07:05:58.194Z,129.50
2019-01-20T07:06:58.373Z,130.11
2019-01-20T07:07:58.646Z,129.65
2019-01-20T07:08:58.689Z,129.93
2019-01-20T07:09:58.836Z,129.75
2019-01-20T07:10:59.003Z,129.59
2019-01-20T07:11:59.182Z,129.62
2019-01-20T07:12:59.388Z,129.33
2019-01-20T07:13:59.517Z,130.26
2019-01-20T07:14:59.642Z,130.25
2019-01-20T07:15:59.910Z,129.52
2019-01-20T07:16:59.988Z,130.15
2019-01-20T07:18:00.136Z,129.82
2019-01-20T07:19:00.330Z,129.68
2019-01-20T07:20:00.528Z,129.32
2019-01-20T07:21:00.620Z,130.11
2019-01-20T07:22:00.801Z,129.78
2019-01-20T07:23:00.968Z,129.51
2019-01-20T07:24:01.176Z,129.39
2019-01-20T07:25:01.233Z,130.34
2019-01-20T07:26:01.413Z,130.15
2019-01-20T07:27:01.607Z,129.61
2019-01-20T07:28:01.751Z,129.95
2019-01-20T07:29:01.924Z,129.71
2019-01-20T07:30:02.085Z,130.49
2019-01-20T07:31:02.231Z,129.46
2019-01-20T07:32:02.436Z,129.95
2019-01-20T07:33:02.650Z,129.62
2019-01-20T07:34:02.755Z,130.03
2019-01-20T07:35:02.939Z,129.93
2019-01-20T07:36:03.082Z,129.76
2019-01-20T07:37:03.259Z,129.98
2019-01-20T07:38:03.431Z,129.57
2019-01-20T07:39:03.584Z,130.23
2019-01-20T07:40:03.769Z,129.80
2019-01-20T07:41:04.012Z,130.30
2019-01-20T07:42:04.081Z,129.99
2019-01-20T07:43:04.272Z,129.14
2019-01-20T07:44:04.400Z,130.83
2019-01-20T07:45:04.577Z,129.45
2019-01-20T07:46:04.724Z,129.48
2019-01-20T07:47:04.898Z,129.29
2019-01-20T07:48:05.060Z,129.58
2019-01-20T07:49:05.274Z,130.13
2019-01-20T07:50:05.376Z,130.34
2019-01-20T07:51:05.521Z,129.76
2019-01-20T07:52:05.705Z,129.79
2019-01-20T07:53:05.989Z,129.41
2019-01-20T07:54:06.021Z,129.24
2019-01-20T07:55:06.420Z,129.50
2019-01-20T07:56:06.333Z,130.04
2019-01-20T07:57:06.569Z,130.07
2019-01-20T07:58:06.633Z,130.21
2019-01-20T07:59:06.799Z,130.20
2019-01-20T08:00:06.982Z,130.57
2019-01-20T08:01:07.132Z,130.34
2019-01-20T08:02:07.301Z,130.13
2019-01-20T08:03:07.448Z,129.80
2019-01-20T08:04:07.634Z,129.78
2019-01-20T08:05:07.802Z,130.36
2019-01-20T08:06:07.947Z,129.39
2019-01-20T08:07:08.114Z,129.95
2019-01-20T08:08:08.262Z,130.34
2019-01-20T08:09:08.431Z,130.48
2019-01-20T08:10:08.584Z,130.65
2019-01-20T08:11:08.726Z,130.32
2019-01-20T08:12:08.927Z,129.77
2019-01-20T08:13:09.097Z,105.69
2019-01-20T08:14:09.396Z,105.69
2019-01-20T08:15:09.401Z,105.69
2019-01-20T08:16:09.562Z,105.69
2019-01-20T08:17:11.301Z,105.69
2019-01-20T08:18:09.884Z,105.69
2019-01-20T08:19:10.081Z,105.69
2019-01-20T08:20:10.220Z,105.69
2019-01-20T08:21:10.351Z,105.69
2019-01-20T08:22:10.676Z,105.69
2019-01-20T08:23:10.705Z,105.69
2019-01-20T08:24:10.873Z,105.69
2019-01-20T08:25:11.047Z,105.69
2019-01-20T08:26:11.179Z,105.69
2019-01-20T08:27:11.368Z,105.69
2019-01-20T08:28:11.515Z,105.69
2019-01-20T08:29:12.394Z,105.69
2019-01-20T08:30:11.882Z,105.69
2019-01-20T08:31:11.955Z,105.69
2019-01-20T08:32:12.187Z,105.69
2019-01-20T08:33:12.324Z,105.69
2019-01-20T08:34:12.495Z,105.69
2019-01-20T08:35:12.675Z,105.69
2019-01-20T08:36:12.811Z,105.69
2019-01-20T08:37:12.970Z,105.69
2019-01-20T08:38:13.170Z,105.69
2019-01-20T08:39:13.299Z,105.69
2019-01-20T08:40:13.481Z,105.69
2019-01-20T08:41:13.629Z,105.69
2019-01-20T08:42:13.792Z,105.69
2019-01-20T08:43:13.954Z,105.69
2019-01-20T08:44:14.123Z,105.69
2019-01-20T08:45:14.309Z,105.69
2019-01-20T08:46:14.509Z,105.69
2019-01-20T08:47:14.711Z,105.69
2019-01-20T08:48:14.776Z,105.69
2019-01-20T08:49:14.945Z,105.69
2019-01-20T08:50:15.106Z,105.69
2019-01-20T08:51:15.260Z,105.69
2019-01-20T08:52:15.419Z,105.69
2019-01-20T08:53:15.603Z,105.69
2019-01-20T08:54:15.754Z,105.69
2019-01-20T08:55:16.028Z,105.69
2019-01-20T08:56:16.063Z,105.69
2019-01-20T08:57:16.218Z,105.69
2019-01-20T08:58:16.405Z,105.69
2019-01-20T08:59:16.612Z,105.69
2019-01-20T09:00:16.733Z,105.69
2019-01-20T09:01:16.925Z,105.69
2019-01-20T09:02:17.062Z,105.69
2019-01-20T09:03:17.300Z,105.69
2019-01-20T09:04:17.372Z,105.69
2019-01-20T09:05:17.533Z,105.69
2019-01-20T09:06:17.682Z,105.69
2019-01-20T09:07:17.856Z,105.69
2019-01-20T09:08:18.032Z,105.69
2019-01-20T09:09:18.184Z,105.69
2019-01-20T09:10:18.355Z,105.69
2019-01-20T09:11:18.541Z,105.69
2019-01-20T09:12:18.642Z,105.69
2019-01-20T09:13:18.821Z,105.69
2019-01-20T09:14:18.975Z,105.69
2019-01-20T09:15:19.144Z,105.69
2019-01-20T09:16:19.293Z,105.69
2019-01-20T09:17:19.438Z,105.69
2019-01-20T09:18:19.632Z,105.69
2019-01-20T09:19:19.833Z,105.69
2019-01-20T09:20:20.054Z,105.69
2019-01-20T09:21:20.103Z,105.69
2019-01-20T09:22:20.251Z,105.69
2019-01-20T09:23:20.440Z,105.69
2019-01-20T09:24:20.616Z,105.69
2019-01-20T09:25:20.765Z,105.69
2019-01-20T09:26:20.969Z,105.69
2019-01-20T09:27:21.087Z,105.69
2019-01-20T09:28:21.409Z,105.69
2019-01-20T09:32:15.842Z,105.69
2019-01-20T09:32:47.897Z,105.69
2019-01-20T09:33:47.846Z,105.69
2019-01-20T09:35:16.949Z,105.69
2019-01-20T09:35:48.171Z,105.69
2019-01-20T09:36:48.337Z,105.69
2019-01-20T09:37:48.531Z,105.69
2019-01-20T09:38:48.613Z,105.69
2019-01-20T09:39:48.814Z,105.69
2019-01-20T09:40:48.934Z,105.69
2019-01-20T09:41:49.125Z,105.69
2019-01-20T09:42:49.311Z,105.69
2019-01-20T09:43:49.469Z,105.69
2019-01-20T09:44:49.686Z,105.69
2019-01-20T09:45:49.805Z,105.69
2019-01-20T09:46:50.085Z,105.69
2019-01-20T09:47:50.107Z,105.69
2019-01-20T09:48:50.283Z,105.69
2019-01-20T09:49:50.517Z,105.69
2019-01-20T09:50:50.597Z,105.69
2019-01-20T09:51:50.776Z,105.69
2019-01-20T09:52:50.944Z,105.69
2019-01-20T09:53:51.066Z,105.69
2019-01-20T09:54:51.416Z,105.69
2019-01-20T09:55:51.415Z,105.69
2019-01-20T09:56:51.600Z,105.69
2019-01-20T09:57:51.723Z,105.69
2019-01-20T09:58:51.871Z,105.69
2019-01-20T09:59:52.149Z,105.69
2019-01-20T10:00:52.269Z,105.69
2019-01-20T10:01:52.404Z,105.69
2019-01-20T10:02:52.668Z,105.69
2019-01-20T10:03:52.674Z,105.69
2019-01-20T10:04:52.882Z,105.69
2019-01-20T10:05:53.073Z,105.69
2019-01-20T10:06:53.229Z,105.69
2019-01-20T10:07:53.351Z,105.69
2019-01-20T10:08:56.659Z,105.69
2019-01-20T10:09:53.690Z,105.69
2019-01-20T10:10:53.850Z,105.69
2019-01-20T10:11:53.996Z,105.69
2019-01-20T10:12:54.145Z,105.69
2019-01-20T10:13:54.948Z,105.69
2019-01-20T10:14:54.487Z,105.69
2019-01-20T10:15:54.649Z,105.69
2019-01-20T10:16:54.791Z,105.69
2019-01-20T10:17:54.948Z,105.69
2019-01-20T10:18:55.167Z,105.69
2019-01-20T10:19:55.309Z,105.69
2019-01-20T10:20:55.477Z,105.69
2019-01-20T10:21:55.638Z,105.69
2019-01-20T10:22:55.765Z,105.69
2019-01-20T10:23:55.941Z,105.69
2019-01-20T10:24:56.119Z,105.69
2019-01-20T10:25:56.278Z,105.69
2019-01-20T10:26:56.494Z,105.69
2019-01-20T10:27:56.725Z,105.69
2019-01-20T10:28:56.747Z,105.69
2019-01-20T10:29:56.926Z,105.69
2019-01-20T10:30:57.081Z,105.69
2019-01-20T10:31:57.249Z,105.69
2019-01-20T10:32:57.394Z,105.69
2019-01-20T10:33:57.534Z,105.69
2019-01-20T10:34:57.726Z,105.69
2019-01-20T10:35:58.032Z,105.69
2019-01-20T10:36:58.055Z,105.69
2019-01-20T10:37:58.188Z,105.69
2019-01-20T10:38:58.366Z,105.69
2019-01-20T10:39:58.562Z,105.69
2019-01-20T10:40:58.937Z,105.69
2019-01-20T10:41:58.850Z,105.69
2019-01-20T10:42:59.027Z,105.69
2019-01-20T10:44:02.293Z,105.69
2019-01-20T10:44:59.351Z,105.69
2019-01-20T10:45:59.509Z,105.69
2019-01-20T10:46:59.663Z,105.69
2019-01-20T10:47:59.842Z,105.69
2019-01-20T10:49:00.002Z,105.69
2019-01-20T10:50:00.176Z,105.69
2019-01-20T10:51:00.333Z,105.69
2019-01-20T10:52:00.538Z,105.69
2019-01-20T10:53:00.556Z,105.69
2019-01-20T10:54:00.740Z,105.69
2019-01-20T10:55:00.908Z,105.69
2019-01-20T10:56:01.097Z,105.69
2019-01-20T10:57:01.208Z,105.69
2019-01-20T10:58:01.397Z,105.69
2019-01-20T10:59:01.531Z,105.69
2019-01-20T11:00:01.729Z,105.69
2019-01-20T11:01:01.988Z,105.69
2019-01-20T11:02:02.094Z,105.69
2019-01-20T11:03:02.268Z,105.69
2019-01-20T11:04:02.411Z,105.69
2019-01-20T11:05:03.505Z,105.69
2019-01-20T11:06:02.714Z,105.69
2019-01-20T11:07:02.897Z,105.69
2019-01-20T11:08:03.075Z,105.69
2019-01-20T11:09:03.342Z,105.69
2019-01-20T11:10:03.378Z,105.69
2019-01-20T11:11:03.522Z,105.69
2019-01-20T11:12:03.938Z,105.69
2019-01-20T11:13:03.884Z,105.69
2019-01-20T11:14:09.473Z,105.69
2019-01-20T11:15:05.204Z,105.69
2019-01-20T11:16:04.348Z,105.69
2019-01-20T11:17:04.543Z,105.69
2019-01-20T11:18:04.671Z,105.69
2019-01-20T11:19:04.819Z,105.69
2019-01-20T11:20:04.998Z,105.69
2019-01-20T11:21:05.133Z,105.69
2019-01-20T11:22:05.314Z,105.69
2019-01-20T11:23:05.484Z,105.69
2019-01-20T11:24:05.624Z,105.69
2019-01-20T11:25:05.855Z,105.69
2019-01-20T11:26:05.935Z,105.69
2019-01-20T11:27:06.121Z,105.69
2019-01-20T11:28:06.262Z,105.69
2019-01-20T11:29:06.414Z,105.69
2019-01-20T11:30:06.586Z,105.69
2019-01-20T11:31:06.738Z,105.69
2019-01-20T11:32:06.922Z,105.69
2019-01-20T11:33:07.092Z,105.69
2019-01-20T11:34:07.263Z,105.69
2019-01-20T11:35:07.388Z,105.69
2019-01-20T11:36:07.537Z,105.69
2019-01-20T11:37:07.700Z,105.69
2019-01-20T11:38:07.877Z,105.69
2019-01-20T11:39:08.002Z,105.69
2019-01-20T11:40:08.190Z,105.69
2019-01-20T11:41:08.370Z,105.69
2019-01-20T11:42:08.638Z,105.69
2019-01-20T11:43:08.683Z,105.69
2019-01-20T11:44:08.828Z,105.69
2019-01-20T11:45:08.997Z,105.69
2019-01-20T11:46:09.158Z,105.69
2019-01-20T11:47:09.344Z,105.69
2019-01-20T11:48:09.496Z,105.69
2019-01-20T11:49:09.649Z,105.69
2019-01-20T11:50:09.876Z,105.69
2019-01-20T11:51:09.975Z,105.69
2019-01-20T11:52:10.156Z,105.69
2019-01-20T11:53:10.318Z,105.69
2019-01-20T11:54:10.462Z,105.69
2019-01-20T11:55:10.606Z,105.69
2019-01-20T11:56:10.797Z,105.69
2019-01-20T11:57:10.969Z,105.69
2019-01-20T11:58:11.171Z,105.69
2019-01-20T11:59:11.260Z,105.69
2019-01-20T12:00:11.416Z,105.69
2019-01-20T12:01:11.599Z,105.69
2019-01-20T12:02:11.775Z,105.69
2019-01-20T12:03:11.923Z,105.69
2019-01-20T12:04:12.068Z,105.69
2019-01-20T12:05:12.232Z,105.69
2019-01-20T12:06:12.427Z,105.69
2019-01-20T12:07:12.617Z,105.69
2019-01-20T12:08:12.749Z,105.69
2019-01-20T12:09:12.897Z,105.69
2019-01-20T12:10:13.064Z,105.69
2019-01-20T12:11:13.236Z,105.69
2019-01-20T12:12:13.392Z,105.69
2019-01-20T12:13:13.540Z,105.69
2019-01-20T12:14:13.725Z,105.69
2019-01-20T12:15:13.975Z,105.69
2019-01-20T12:16:14.039Z,105.69
2019-01-20T12:17:14.193Z,105.69
2019-01-20T12:18:14.362Z,105.69
2019-01-20T12:19:14.495Z,105.69
2019-01-20T12:20:14.668Z,105.69
2019-01-20T12:21:14.916Z,105.69
2019-01-20T12:22:15.008Z,105.69
2019-01-20T12:23:15.220Z,105.69
2019-01-20T12:24:15.310Z,105.69
2019-01-20T12:25:15.468Z,105.69
2019-01-20T12:26:15.650Z,105.69
2019-01-20T12:27:15.871Z,105.69
2019-01-20T12:28:15.954Z,105.69
2019-01-20T12:29:16.110Z,105.69
2019-01-20T12:30:16.290Z,105.69
2019-01-20T12:31:16.728Z,105.69
2019-01-20T12:32:16.618Z,105.69
2019-01-20T12:33:17.177Z,105.69
2019-01-20T12:34:16.908Z,105.69
2019-01-20T12:35:17.083Z,105.69
2019-01-20T12:36:17.258Z,105.69
2019-01-20T12:37:17.430Z,105.69
2019-01-20T12:38:17.585Z,105.69